Time;durP1;ratioP1;P1;durP2;ratioP2;P2;SDS_P1;SDS_P2;PMS_P1;PMS_P2;Temp;Humidity;BMP_temperature;BMP_pressure;BME280_temperature;BME280_humidity;BME280_pressure;Samples;Min_cycle;Max_cycle;Signal;HPM_P1;HPM_P2
2023/07/04 00:01:13;;;;;;;8.23;3.72;;;;;;;16.95;47.98;99455.34;5072787;28;20075;-51
2023/07/04 00:03:41;;;;;;;12.57;4.57;;;;;;;16.91;47.85;99459.41;5071523;28;20029;-54
2023/07/04 00:06:08;;;;;;;8.00;3.92;;;;;;;16.51;48.01;99402.59;5072511;28;20025;-54
2023/07/04 00:08:34;;;;;;;10.80;3.90;;;;;;;16.86;47.89;99448.25;5072905;28;20055;-56
2023/07/04 00:11:01;;;;;;;9.77;4.20;;;;;;;16.85;48.19;99460.09;5082624;28;20047;-53
2023/07/04 00:13:28;;;;;;;10.13;4.38;;;;;;;16.81;48.87;99464.16;5073141;28;20060;-54
2023/07/04 00:15:55;;;;;;;8.35;3.60;;;;;;;16.81;48.47;99478.53;5072714;28;20032;-52
2023/07/04 00:18:23;;;;;;;6.43;3.75;;;;;;;16.74;48.64;99458.59;5072878;28;20032;-56
2023/07/04 00:20:54;;;;;;;8.40;4.07;;;;;;;16.74;48.69;99466.72;5073029;28;20490;-51
2023/07/04 00:23:33;;;;;;;7.70;4.40;;;;;;;16.79;48.57;99473.31;5072318;28;20032;-56
2023/07/04 00:26:00;;;;;;;10.80;4.03;;;;;;;16.70;48.89;99474.34;5072998;28;20352;-54
2023/07/04 00:28:26;;;;;;;6.85;4.18;;;;;;;16.67;48.92;99471.13;5073016;28;20044;-50
2023/07/04 00:30:54;;;;;;;11.98;4.57;;;;;;;16.66;48.94;99478.41;5071904;28;20024;-54
2023/07/04 00:33:24;;;;;;;7.50;4.60;;;;;;;16.66;48.94;99486.53;5071306;28;20039;-50
2023/07/04 00:36:04;;;;;;;11.65;4.45;;;;;;;16.68;48.72;99481.78;5073208;28;20028;-52
2023/07/04 00:38:34;;;;;;;10.90;4.60;;;;;;;16.67;49.17;99480.09;5072857;28;20036;-55
2023/07/04 00:41:01;;;;;;;11.95;4.63;;;;;;;16.59;48.92;99470.16;5072210;28;20039;-55
2023/07/04 00:43:46;;;;;;;12.57;4.15;;;;;;;16.82;49.01;99493.75;5073387;28;20025;-52
2023/07/04 00:46:15;;;;;;;14.65;5.13;;;;;;;16.78;48.24;99482.44;5071875;28;20470;-55
2023/07/04 00:48:44;;;;;;;11.65;4.45;;;;;;;16.75;48.79;99485.47;5071423;28;20029;-50
2023/07/04 00:51:21;;;;;;;13.45;4.95;;;;;;;16.58;49.53;99460.34;5072018;28;20036;-54
2023/07/04 00:53:53;;;;;;;9.25;4.32;;;;;;;16.72;48.81;99482.25;5071823;28;20073;-54
2023/07/04 00:56:24;;;;;;;12.57;4.32;;;;;;;16.69;49.21;99494.28;5072739;28;20025;-55
2023/07/04 00:58:51;;;;;;;13.68;5.22;;;;;;;16.64;49.47;99488.56;5072264;28;20175;-56
2023/07/04 01:01:18;;;;;;;9.98;5.32;;;;;;;16.63;49.92;99500.34;5071824;28;20090;-56
2023/07/04 01:03:43;;;;;;;14.85;5.00;;;;;;;16.59;49.73;99499.88;5071657;28;20041;-52
2023/07/04 01:06:21;;;;;;;11.10;5.00;;;;;;;16.66;49.98;99505.44;5072495;28;20037;-57
2023/07/04 01:08:55;;;;;;;11.43;4.93;;;;;;;16.54;50.07;99502.25;5081035;28;20111;-56
2023/07/04 01:11:29;;;;;;;11.90;4.63;;;;;;;16.58;49.67;99506.28;5092122;28;20036;-54
2023/07/04 01:13:55;;;;;;;16.55;5.07;;;;;;;16.59;49.16;99502.56;5091750;28;20073;-53
2023/07/04 01:16:22;;;;;;;8.40;4.88;;;;;;;16.57;49.52;99490.25;5091548;28;20136;-51
2023/07/04 01:18:51;;;;;;;9.45;4.57;;;;;;;16.73;49.12;99517.25;5091813;28;20043;-52
2023/07/04 01:21:20;;;;;;;10.45;4.90;;;;;;;16.77;48.83;99518.59;5091641;28;20101;-52
2023/07/04 01:24:01;;;;;;;11.18;4.85;;;;;;;16.81;48.62;99512.84;5089993;28;20036;-57
2023/07/04 01:26:33;;;;;;;7.65;4.28;;;;;;;16.91;48.86;99524.31;5076154;28;20111;-54
2023/07/04 01:29:01;;;;;;;8.95;4.72;;;;;;;17.00;48.41;99530.56;5071837;28;20028;-51
2023/07/04 01:31:30;;;;;;;14.63;4.85;;;;;;;17.04;48.86;99524.63;5070529;28;20056;-54
2023/07/04 01:33:57;;;;;;;13.07;4.82;;;;;;;17.11;48.99;99529.34;5068500;28;20032;-53
2023/07/04 01:36:26;;;;;;;9.38;5.00;;;;;;;17.14;49.04;99529.03;5070959;28;20043;-54
2023/07/04 01:38:52;;;;;;;10.20;4.80;;;;;;;17.14;48.13;99529.03;5070925;28;20028;-53
2023/07/04 01:41:18;;;;;;;13.82;4.80;;;;;;;17.19;48.88;99526.63;5070519;28;20085;-53
2023/07/04 01:43:52;;;;;;;12.73;5.07;;;;;;;17.27;48.74;99532.00;5071146;28;20047;-52
2023/07/04 01:46:18;;;;;;;11.98;5.10;;;;;;;17.23;48.72;99533.38;5074726;28;20059;-53
2023/07/04 01:48:44;;;;;;;11.23;5.15;;;;;;;17.20;49.09;99534.56;5074484;28;20052;-53
2023/07/04 01:51:09;;;;;;;12.13;5.60;;;;;;;17.25;48.56;99536.75;5073625;28;20041;-52
2023/07/04 01:53:35;;;;;;;12.05;5.10;;;;;;;17.29;48.42;99546.19;5075332;28;20055;-55
2023/07/04 01:56:00;;;;;;;11.20;5.55;;;;;;;17.32;48.06;99543.13;5075466;28;20044;-53
2023/07/04 01:58:26;;;;;;;12.27;5.38;;;;;;;17.25;48.15;99536.75;5075322;28;20132;-53
2023/07/04 02:00:52;;;;;;;12.88;5.13;;;;;;;17.42;48.21;99552.94;5073694;28;20115;-53
2023/07/04 02:03:17;;;;;;;8.73;4.47;;;;;;;17.40;47.75;99546.84;5074910;28;20116;-51
2023/07/04 02:05:43;;;;;;;13.90;5.03;;;;;;;17.45;48.01;99549.88;5074669;28;20465;-51
2023/07/04 02:08:09;;;;;;;14.23;5.25;;;;;;;17.48;47.99;99546.81;5075483;28;20024;-54
2023/07/04 02:10:34;;;;;;;10.35;5.10;;;;;;;17.50;47.97;99556.44;5075296;28;20033;-54
2023/07/04 02:13:00;;;;;;;14.05;5.45;;;;;;;17.58;47.83;99569.06;5075439;28;20532;-57
2023/07/04 02:15:26;;;;;;;9.95;5.68;;;;;;;17.60;47.93;99569.78;5074801;28;20032;-56
2023/07/04 02:17:52;;;;;;;15.05;5.97;;;;;;;17.70;47.94;99566.81;5074319;28;20032;-54
2023/07/04 02:20:19;;;;;;;10.68;5.68;;;;;;;17.83;47.59;99577.09;5074801;28;20056;-54
2023/07/04 02:22:44;;;;;;;16.20;5.50;;;;;;;17.97;47.25;99571.94;5076154;28;20037;-54
2023/07/04 02:25:10;;;;;;;14.88;5.63;;;;;;;18.24;47.28;99583.31;5091205;28;20335;-54
2023/07/04 02:27:36;;;;;;;12.70;5.22;;;;;;;18.46;46.65;99579.75;5094876;28;20032;-55
2023/07/04 02:30:04;;;;;;;15.85;5.38;;;;;;;18.35;46.74;99524.09;5095030;28;20036;-56
2023/07/04 02:32:32;;;;;;;13.98;5.30;;;;;;;18.93;45.84;99582.41;5095149;28;20457;-50
2023/07/04 02:34:57;;;;;;;12.23;5.50;;;;;;;19.18;45.18;99579.47;5093548;28;20059;-52
2023/07/04 02:37:23;;;;;;;13.35;5.47;;;;;;;19.49;45.21;99573.00;5093905;28;20117;-54
2023/07/04 02:39:50;;;;;;;13.38;5.30;;;;;;;19.86;44.06;99573.88;5094692;28;20116;-51
2023/07/04 02:42:15;;;;;;;11.73;5.47;;;;;;;20.29;43.81;99577.72;5094795;28;20119;-54
2023/07/04 02:44:41;;;;;;;11.77;5.35;;;;;;;20.61;41.56;99581.78;5094655;28;20322;-51
2023/07/04 02:47:07;;;;;;;14.93;5.30;;;;;;;20.89;41.86;99582.88;5094530;28;20086;-53
2023/07/04 02:49:35;;;;;;;12.27;5.28;;;;;;;20.99;40.65;99577.94;5092740;28;20036;-57
2023/07/04 02:52:01;;;;;;;13.45;4.72;;;;;;;21.14;39.30;99588.72;5094605;28;20036;-53
2023/07/04 02:54:26;;;;;;;15.25;5.07;;;;;;;21.17;39.55;99580.16;5094344;28;20028;-54
2023/07/04 02:56:52;;;;;;;12.50;4.75;;;;;;;21.12;39.74;99590.81;5092667;28;20354;-54
2023/07/04 02:59:18;;;;;;;9.52;4.63;;;;;;;21.18;39.06;99594.59;5093948;28;20055;-51
2023/07/04 03:01:45;;;;;;;10.95;4.50;;;;;;;21.26;38.34;99585.44;5094561;28;20160;-53
2023/07/04 03:04:10;;;;;;;12.23;4.93;;;;;;;21.52;37.63;99585.56;5091741;28;20028;-52
2023/07/04 03:06:36;;;;;;;13.45;4.53;;;;;;;21.95;37.03;99589.13;5094048;28;20111;-55
2023/07/04 03:09:01;;;;;;;14.02;4.95;;;;;;;22.40;36.13;99591.34;5093861;28;20032;-56
2023/07/04 03:11:27;;;;;;;10.77;4.43;;;;;;;22.90;35.54;99585.53;5093531;28;20033;-50
2023/07/04 03:13:53;;;;;;;9.60;4.65;;;;;;;23.44;34.31;99595.56;5087005;28;20078;-57
2023/07/04 03:16:18;;;;;;;9.93;4.50;;;;;;;23.89;33.25;99595.59;5072993;28;20496;-55
2023/07/04 03:18:44;;;;;;;9.18;4.18;;;;;;;24.37;32.49;99591.56;5072912;28;20111;-58
2023/07/04 03:21:09;;;;;;;10.25;4.43;;;;;;;24.89;31.35;99598.78;5093700;28;20042;-55
2023/07/04 03:23:35;;;;;;;18.13;4.68;;;;;;;25.28;31.03;99601.34;5093829;28;20024;-53
2023/07/04 03:26:00;;;;;;;10.40;4.50;;;;;;;25.64;30.82;99583.28;5093570;28;20020;-52
2023/07/04 03:28:26;;;;;;;10.30;4.43;;;;;;;26.00;29.58;99583.47;5093681;28;20081;-55
2023/07/04 03:30:51;;;;;;;8.60;4.40;;;;;;;26.40;29.75;99593.06;5093273;28;20063;-53
2023/07/04 03:33:17;;;;;;;9.88;4.70;;;;;;;26.69;29.35;99590.50;5093781;28;20110;-54
2023/07/04 03:35:42;;;;;;;11.52;5.18;;;;;;;27.02;28.20;99589.13;5091927;28;20430;-55
2023/07/04 03:38:08;;;;;;;7.75;4.00;;;;;;;27.49;27.21;99599.25;5091457;28;20425;-55
2023/07/04 03:40:33;;;;;;;11.55;4.30;;;;;;;27.96;26.40;99596.63;5093339;28;20043;-57
2023/07/04 03:42:59;;;;;;;9.02;4.10;;;;;;;28.51;25.47;99592.44;5093300;28;20129;-51
2023/07/04 03:45:24;;;;;;;9.85;4.47;;;;;;;28.68;24.70;99569.59;5092888;28;20032;-56
2023/07/04 03:47:50;;;;;;;9.68;4.28;;;;;;;29.10;25.10;99598.66;5093006;28;20438;-56
2023/07/04 03:50:16;;;;;;;8.98;4.10;;;;;;;29.19;24.71;99602.66;5093672;28;20077;-53
2023/07/04 03:52:41;;;;;;;8.88;4.10;;;;;;;29.33;24.33;99608.66;5090651;28;20028;-56
2023/07/04 03:55:08;;;;;;;9.68;4.63;;;;;;;29.63;23.91;99608.25;5075573;28;20357;-52
2023/07/04 03:57:34;;;;;;;10.88;3.88;;;;;;;30.04;23.67;99621.75;5071965;28;20088;-56
2023/07/04 03:59:59;;;;;;;7.68;4.28;;;;;;;30.51;22.66;99592.69;5072335;28;20060;-55
2023/07/04 04:02:25;;;;;;;8.13;3.80;;;;;;;31.14;21.62;99587.66;5072186;28;20111;-54
2023/07/04 04:04:50;;;;;;;8.73;4.03;;;;;;;32.10;21.62;99618.03;5071772;28;20056;-54
2023/07/04 04:07:16;;;;;;;9.43;4.03;;;;;;;32.72;20.63;99623.69;5073001;28;20048;-52
2023/07/04 04:09:43;;;;;;;12.45;4.30;;;;;;;33.19;19.91;99620.91;5072824;28;20032;-62
2023/07/04 04:12:09;;;;;;;12.73;4.55;;;;;;;33.53;19.09;99600.88;5073101;28;20118;-55
2023/07/04 04:14:36;;;;;;;9.60;3.97;;;;;;;34.28;18.83;99631.66;5072220;28;20405;-53
2023/07/04 04:17:02;;;;;;;9.88;4.10;;;;;;;34.82;17.84;99620.72;5073430;28;20043;-56
2023/07/04 04:19:28;;;;;;;15.35;3.97;;;;;;;35.48;17.60;99624.78;5072610;28;20120;-55
2023/07/04 04:21:54;;;;;;;12.60;4.45;;;;;;;36.02;16.97;99629.50;5072265;28;20021;-55
2023/07/04 04:24:21;;;;;;;13.73;4.70;;;;;;;36.51;16.35;99638.50;5072344;28;20054;-57
2023/07/04 04:26:47;;;;;;;10.45;4.00;;;;;;;36.88;16.03;99633.19;5073954;28;20039;-55
2023/07/04 04:29:17;;;;;;;12.50;4.13;;;;;;;37.14;15.91;99627.22;5073146;28;20024;-56
2023/07/04 04:31:45;;;;;;;7.20;3.90;;;;;;;37.53;15.55;99637.09;5072233;28;20034;-59
2023/07/04 04:34:11;;;;;;;12.60;4.53;;;;;;;38.12;14.46;99633.66;5072464;28;20070;-58
2023/07/04 04:36:37;;;;;;;9.52;3.78;;;;;;;38.42;14.33;99617.31;5072514;28;20362;-57
2023/07/04 04:39:04;;;;;;;8.05;3.90;;;;;;;38.65;14.21;99634.13;5072609;28;20032;-56
2023/07/04 04:41:29;;;;;;;11.73;3.85;;;;;;;38.94;14.17;99632.00;5071691;28;20028;-58
2023/07/04 04:43:57;;;;;;;8.68;4.13;;;;;;;39.26;13.51;99644.88;5072154;28;20075;-54
2023/07/04 04:46:23;;;;;;;10.73;4.00;;;;;;;39.59;13.64;99649.31;5072542;28;20043;-56
2023/07/04 04:48:50;;;;;;;7.22;4.10;;;;;;;39.62;13.69;99651.47;5072757;28;20029;-58
2023/07/04 04:51:17;;;;;;;9.52;4.35;;;;;;;40.26;13.26;99652.13;5073012;28;20457;-55
2023/07/04 04:53:44;;;;;;;10.25;3.88;;;;;;;40.28;13.07;99627.44;5092315;28;20028;-52
2023/07/04 04:56:12;;;;;;;13.57;4.25;;;;;;;40.81;12.68;99655.50;5092848;28;20028;-56
2023/07/04 04:58:43;;;;;;;8.13;3.72;;;;;;;41.10;12.43;99651.94;5074201;28;20405;-54
2023/07/04 05:01:23;;;;;;;9.38;3.60;;;;;;;42.06;11.78;99647.09;5070913;28;20530;-53
2023/07/04 05:03:52;;;;;;;7.20;3.83;;;;;;;42.62;11.39;99653.63;5072031;28;20036;-53
2023/07/04 05:06:20;;;;;;;10.25;3.95;;;;;;;42.87;11.03;99660.19;5071587;28;20038;-54
2023/07/04 05:08:46;;;;;;;9.18;3.72;;;;;;;42.93;10.94;99656.00;5072221;28;20020;-56
2023/07/04 05:11:13;;;;;;;8.98;4.10;;;;;;;43.08;11.04;99657.34;5072104;28;20043;-53
2023/07/04 05:13:41;;;;;;;9.20;4.20;;;;;;;43.49;10.80;99665.97;5071491;28;20042;-50
2023/07/04 05:16:11;;;;;;;6.57;3.83;;;;;;;43.64;10.53;99666.44;5071216;28;20055;-54
2023/07/04 05:18:38;;;;;;;9.35;4.28;;;;;;;44.19;10.29;99661.38;5071544;28;20131;-50
2023/07/04 05:21:07;;;;;;;5.88;4.40;;;;;;;44.65;9.96;99672.44;5075419;28;20136;-52
2023/07/04 05:23:35;;;;;;;7.97;4.07;;;;;;;45.14;9.41;99676.22;5076409;28;20032;-57
2023/07/04 05:26:06;;;;;;;7.65;4.07;;;;;;;45.40;9.22;99674.88;5055140;28;20132;-56
2023/07/04 05:28:32;;;;;;;8.70;4.07;;;;;;;45.75;8.98;99676.97;5055745;28;20095;-55
2023/07/04 05:31:00;;;;;;;7.82;4.00;;;;;;;46.11;9.00;99677.84;5055576;28;20033;-57
2023/07/04 05:33:26;;;;;;;6.03;3.35;;;;;;;46.13;8.69;99668.97;5054672;28;20029;-53
2023/07/04 05:35:51;;;;;;;8.40;4.30;;;;;;;46.20;8.99;99673.97;5054904;28;20025;-55
2023/07/04 05:38:17;;;;;;;8.13;3.95;;;;;;;46.64;8.54;99681.38;5055085;28;20043;-60
2023/07/04 05:40:43;;;;;;;5.78;3.40;;;;;;;46.96;8.08;99684.88;5093433;28;20086;-54
2023/07/04 05:43:08;;;;;;;8.88;4.18;;;;;;;47.53;7.87;99678.63;5095508;28;20032;-52
2023/07/04 05:45:34;;;;;;;7.25;3.70;;;;;;;47.95;7.45;99661.81;5095779;28;20515;-56
2023/07/04 05:47:59;;;;;;;9.80;4.25;;;;;;;48.62;7.03;99670.88;5093552;28;20135;-55
2023/07/04 05:50:25;;;;;;;10.10;3.78;;;;;;;49.14;6.70;99682.41;5095037;28;20369;-55
2023/07/04 05:52:50;;;;;;;6.53;4.13;;;;;;;49.63;6.51;99688.94;5095731;28;20024;-51
2023/07/04 05:55:16;;;;;;;7.15;4.03;;;;;;;49.63;6.70;99688.94;5095707;28;20028;-51
2023/07/04 05:57:41;;;;;;;6.30;3.60;;;;;;;49.57;6.56;99693.38;5094785;28;20102;-55
2023/07/04 06:00:09;;;;;;;9.48;4.40;;;;;;;49.55;6.68;99682.38;5093318;28;20115;-56
2023/07/04 06:02:34;;;;;;;8.98;4.03;;;;;;;49.61;6.35;99682.84;5095549;28;20024;-55
2023/07/04 06:05:00;;;;;;;7.35;4.00;;;;;;;49.97;6.12;99700.16;5092594;28;20418;-54
2023/07/04 06:07:29;;;;;;;5.90;4.05;;;;;;;50.03;6.33;99709.16;5074442;28;20025;-52
2023/07/04 06:09:55;;;;;;;5.85;4.40;;;;;;;48.34;7.59;99701.31;5074270;28;20452;-52
2023/07/04 06:12:20;;;;;;;6.70;4.70;;;;;;;46.85;8.03;99695.16;5074784;28;20028;-59
2023/07/04 06:14:46;;;;;;;10.20;4.10;;;;;;;47.32;8.13;99698.91;5074645;28;20020;-48
2023/07/04 06:17:11;;;;;;;6.25;3.80;;;;;;;48.91;7.12;99691.91;5074341;28;20071;-52
2023/07/04 06:19:37;;;;;;;7.93;3.75;;;;;;;49.97;6.60;99702.22;5084960;28;20106;-53
2023/07/04 06:22:05;;;;;;;7.35;3.90;;;;;;;50.74;6.40;99712.78;5095024;28;20110;-55
2023/07/04 06:24:31;;;;;;;8.90;4.57;;;;;;;51.37;5.63;99703.16;5095382;28;20023;-54
2023/07/04 06:26:57;;;;;;;7.95;4.25;;;;;;;51.77;5.01;99698.25;5086806;28;20024;-56
2023/07/04 06:29:22;;;;;;;9.57;4.45;;;;;;;51.75;5.77;99700.72;5074601;28;20036;-56
2023/07/04 06:31:51;;;;;;;6.65;4.47;;;;;;;51.65;5.33;99712.97;5073859;28;20032;-55
2023/07/04 06:34:16;;;;;;;5.60;4.50;;;;;;;51.16;5.15;99698.22;5081551;28;20093;-60
2023/07/04 06:36:48;;;;;;;6.88;4.15;;;;;;;51.09;5.29;99705.56;5075055;28;20127;-60
2023/07/04 06:39:13;;;;;;;7.78;4.47;;;;;;;50.14;5.63;99706.38;5091691;28;20024;-58
2023/07/04 06:41:39;;;;;;;7.95;4.55;;;;;;;50.62;5.41;99704.59;5095017;28;20024;-55
2023/07/04 06:44:05;;;;;;;8.50;4.70;;;;;;;51.18;5.36;99716.56;5095086;28;20123;-54
2023/07/04 06:46:31;;;;;;;8.60;4.75;;;;;;;51.66;5.01;99708.91;5094406;28;20039;-55
2023/07/04 06:48:56;;;;;;;6.53;4.38;;;;;;;52.48;5.48;99697.69;5094105;28;20024;-55
2023/07/04 06:51:24;;;;;;;8.95;4.75;;;;;;;53.23;4.55;99705.03;5094673;28;20043;-51
2023/07/04 06:53:50;;;;;;;11.02;4.45;;;;;;;53.67;4.81;99690.38;5093917;28;20485;-54
2023/07/04 06:56:21;;;;;;;7.55;4.70;;;;;;;54.80;3.94;99716.50;5094260;28;20482;-55
2023/07/04 06:58:55;;;;;;;6.85;5.00;;;;;;;55.19;4.09;99720.03;5094439;28;20104;-55
2023/07/04 07:01:23;;;;;;;7.57;5.38;;;;;;;54.36;3.77;99719.13;5092360;28;20199;-53
2023/07/04 07:03:49;;;;;;;7.43;5.20;;;;;;;54.08;3.78;99680.97;5094251;28;20032;-54
2023/07/04 07:06:15;;;;;;;8.23;6.05;;;;;;;54.47;3.80;99709.56;5093152;28;20024;-54
2023/07/04 07:08:41;;;;;;;9.10;5.57;;;;;;;54.99;3.38;99716.22;5069510;28;20082;-59
2023/07/04 07:11:13;;;;;;;7.65;5.90;;;;;;;55.43;3.44;99717.19;5087892;28;20067;-54
2023/07/04 07:13:40;;;;;;;6.25;5.65;;;;;;;55.52;3.58;99725.25;5091868;28;20447;-51
2023/07/04 07:16:11;;;;;;;7.60;5.72;;;;;;;55.61;3.37;99730.41;5093324;28;20024;-57
2023/07/04 07:18:38;;;;;;;9.48;5.75;;;;;;;54.75;3.70;99719.06;5093603;28;20047;-58
2023/07/04 07:21:05;;;;;;;5.95;5.35;;;;;;;54.66;3.61;99717.50;5078837;28;20028;-51
2023/07/04 07:23:32;;;;;;;7.22;5.95;;;;;;;54.51;3.35;99725.47;5085928;28;20046;-55
2023/07/04 07:26:00;;;;;;;5.90;5.40;;;;;;;54.76;3.80;99715.75;5090520;28;20039;-55
2023/07/04 07:28:27;;;;;;;10.98;6.00;;;;;;;55.58;3.61;99719.81;5073061;28;20052;-57
2023/07/04 07:31:02;;;;;;;7.43;5.63;;;;;;;55.76;3.87;99719.50;5073245;28;20028;-59
2023/07/04 07:33:31;;;;;;;8.38;5.78;;;;;;;52.88;4.26;99706.91;5073093;28;20024;-55
2023/07/04 07:35:57;;;;;;;7.30;4.80;;;;;;;49.26;5.52;99712.56;5072938;28;20300;-54
2023/07/04 07:38:23;;;;;;;8.80;4.47;;;;;;;45.75;7.65;99707.28;5083541;28;20116;-58
2023/07/04 07:40:53;;;;;;;7.47;4.43;;;;;;;42.83;9.29;99715.50;5089925;28;20029;-56
2023/07/04 07:43:19;;;;;;;9.43;4.30;;;;;;;40.30;11.30;99698.03;5072909;28;20033;-59
2023/07/04 07:45:48;;;;;;;7.15;3.95;;;;;;;38.61;12.36;99714.22;5072432;28;20029;-52
2023/07/04 07:48:14;;;;;;;9.38;4.25;;;;;;;36.88;13.95;99719.69;5072950;28;20081;-53
2023/07/04 07:50:41;;;;;;;12.23;4.72;;;;;;;35.54;14.38;99728.59;5074064;28;20112;-52
2023/07/04 07:53:07;;;;;;;9.95;4.57;;;;;;;34.40;16.10;99725.78;5072069;28;20036;-56
2023/07/04 07:55:32;;;;;;;8.63;4.55;;;;;;;33.53;17.72;99703.56;5071397;28;20037;-55
2023/07/04 07:57:58;;;;;;;9.35;4.75;;;;;;;33.12;17.97;99725.75;5070990;28;20082;-60
2023/07/04 08:00:24;;;;;;;12.77;5.00;;;;;;;32.84;18.75;99725.97;5068285;28;20040;-59
2023/07/04 08:02:49;;;;;;;7.30;4.45;;;;;;;33.19;18.92;99726.31;5072987;28;20367;-58
2023/07/04 08:05:16;;;;;;;10.73;4.78;;;;;;;34.66;17.74;99723.69;5072033;28;20036;-56
2023/07/04 08:07:41;;;;;;;10.68;4.70;;;;;;;38.28;14.15;99722.75;5090359;28;20047;-58
2023/07/04 08:10:07;;;;;;;17.10;5.30;;;;;;;41.89;11.89;99716.28;5087053;28;20044;-58
2023/07/04 08:12:33;;;;;;;8.07;4.40;;;;;;;44.72;9.09;99726.28;5071582;28;20036;-59
2023/07/04 08:14:59;;;;;;;8.35;4.10;;;;;;;46.27;8.05;99727.88;5070952;28;20032;-55
2023/07/04 08:17:24;;;;;;;7.63;4.25;;;;;;;46.46;7.60;99717.78;5072575;28;20478;-61
2023/07/04 08:19:50;;;;;;;7.90;4.65;;;;;;;45.28;8.15;99733.09;5071697;28;20028;-63
2023/07/04 08:22:16;;;;;;;9.63;4.57;;;;;;;44.71;8.46;99716.16;5070577;28;20084;-53
2023/07/04 08:24:42;;;;;;;5.93;3.70;;;;;;;44.91;8.43;99721.97;5072389;28;20035;-56
2023/07/04 08:27:07;;;;;;;7.38;3.88;;;;;;;44.09;9.34;99715.44;5089074;28;20119;-56
2023/07/04 08:29:33;;;;;;;7.30;4.40;;;;;;;42.04;9.67;99723.34;5089032;28;20447;-56
2023/07/04 08:31:59;;;;;;;5.28;3.97;;;;;;;39.98;11.58;99723.34;5083858;28;20067;-59
2023/07/04 08:34:24;;;;;;;7.65;4.30;;;;;;;38.12;12.49;99717.50;5070667;28;20466;-63
2023/07/04 08:36:50;;;;;;;6.55;3.95;;;;;;;36.59;13.74;99734.63;5072063;28;20032;-60
2023/07/04 08:39:16;;;;;;;5.22;3.90;;;;;;;35.24;13.78;99721.34;5071945;28;20056;-57
2023/07/04 08:41:53;;;;;;;8.57;4.05;;;;;;;34.26;15.45;99725.56;5075498;28;20119;-54
2023/07/04 08:44:43;;;;;;;9.25;4.22;;;;;;;33.66;16.08;99734.59;5069651;28;20025;-59
2023/07/04 08:47:16;;;;;;;5.95;3.65;;;;;;;33.18;16.42;99742.13;5069994;28;20036;-56
2023/07/04 08:49:48;;;;;;;8.13;4.30;;;;;;;32.67;16.75;99745.63;5070325;28;20063;-59
2023/07/04 08:52:36;;;;;;;9.02;4.47;;;;;;;32.36;16.99;99738.06;5069209;28;20198;-57
2023/07/04 08:55:02;;;;;;;9.88;4.30;;;;;;;31.58;18.63;99733.19;5071470;28;20070;-63
2023/07/04 08:57:51;;;;;;;9.20;4.45;;;;;;;31.32;18.65;99733.81;5066120;28;20785;-59
2023/07/04 09:00:35;;;;;;;7.60;4.18;;;;;;;31.05;19.12;99742.97;5071722;28;20044;-58
2023/07/04 09:03:22;;;;;;;8.75;4.22;;;;;;;30.63;19.06;99746.44;5072065;28;20064;-57
2023/07/04 09:06:02;;;;;;;7.63;4.20;;;;;;;30.60;19.14;99730.31;5080306;28;20036;-58
2023/07/04 09:08:43;;;;;;;8.30;3.90;;;;;;;30.63;19.48;99725.16;5074277;28;20051;-57
2023/07/04 09:11:11;;;;;;;5.97;4.20;;;;;;;30.39;19.12;99710.78;5085730;28;20126;-57
2023/07/04 09:14:02;;;;;;;9.00;4.13;;;;;;;30.67;19.25;99725.47;5067581;28;20097;-58
2023/07/04 09:16:48;;;;;;;11.13;4.40;;;;;;;30.51;19.45;99728.03;5064699;28;20025;-58
2023/07/04 09:19:19;;;;;;;7.13;4.40;;;;;;;30.38;20.11;99733.94;5070829;28;20363;-58
2023/07/04 09:21:45;;;;;;;7.60;4.57;;;;;;;29.84;20.29;99716.13;5072382;28;20024;-57
2023/07/04 09:24:11;;;;;;;8.48;4.45;;;;;;;29.61;20.54;99737.31;5070867;28;20039;-55
2023/07/04 09:26:49;;;;;;;8.98;4.82;;;;;;;29.73;20.94;99733.63;5071439;28;20035;-53
2023/07/04 09:29:24;;;;;;;5.22;3.90;;;;;;;29.97;20.47;99731.47;5071522;28;20127;-56
2023/07/04 09:32:00;;;;;;;8.73;4.13;;;;;;;30.11;20.21;99734.72;5071331;28;20481;-57
2023/07/04 09:34:46;;;;;;;6.80;3.92;;;;;;;30.01;20.06;99729.03;5071843;28;20064;-58
2023/07/04 09:37:15;;;;;;;9.75;4.45;;;;;;;29.79;20.17;99738.13;5071992;28;20039;-57
2023/07/04 09:39:55;;;;;;;9.43;4.63;;;;;;;29.84;20.66;99740.97;5069807;28;20332;-57
2023/07/04 09:42:41;;;;;;;12.05;4.13;;;;;;;30.05;20.39;99736.59;5071640;28;20025;-55
2023/07/04 09:45:09;;;;;;;7.07;4.43;;;;;;;30.07;20.35;99731.66;5080236;28;20032;-51
2023/07/04 09:47:36;;;;;;;9.27;4.60;;;;;;;30.15;20.13;99743.34;5090283;28;20111;-55
2023/07/04 09:50:21;;;;;;;7.80;4.30;;;;;;;30.08;20.54;99752.66;5071276;28;20055;-56
2023/07/04 09:53:02;;;;;;;5.57;4.05;;;;;;;29.90;20.34;99750.16;5071824;28;20024;-53
2023/07/04 09:55:27;;;;;;;5.00;4.22;;;;;;;29.33;20.29;99710.66;5073186;28;20133;-55
2023/07/04 09:58:21;;;;;;;6.78;3.88;;;;;;;29.48;20.57;99734.94;5071354;28;20458;-54
2023/07/04 10:01:12;;;;;;;6.38;4.45;;;;;;;29.37;20.56;99731.94;5077513;28;20134;-56
2023/07/04 10:03:39;;;;;;;9.18;4.53;;;;;;;28.93;21.13;99732.59;5071597;28;20467;-60
2023/07/04 10:06:06;;;;;;;5.35;4.20;;;;;;;28.77;21.97;99728.72;5073359;28;20115;-61
2023/07/04 10:08:48;;;;;;;6.88;4.40;;;;;;;28.77;21.65;99717.69;5074511;28;20363;-57
2023/07/04 10:11:33;;;;;;;10.27;4.55;;;;;;;29.14;21.51;99729.38;5074614;28;20036;-54
2023/07/04 10:14:00;;;;;;;;;;;;;;;29.67;20.23;99726.38;5075511;28;20085;-58
2023/07/04 10:16:26;;;;;;;8.25;4.43;;;;;;;29.29;20.93;99724.13;5075235;28;19985;-61
2023/07/04 10:19:02;;;;;;;12.40;4.20;;;;;;;29.10;20.70;99725.44;5072701;28;20024;-58
2023/07/04 10:21:28;;;;;;;8.27;4.32;;;;;;;28.52;21.30;99720.78;5068181;28;20090;-54
2023/07/04 10:23:53;;;;;;;9.00;4.38;;;;;;;28.41;21.55;99724.44;5073790;28;20020;-55
2023/07/04 10:26:19;;;;;;;7.93;4.55;;;;;;;28.40;21.34;99728.28;5074015;28;20059;-54
2023/07/04 10:28:46;;;;;;;6.68;4.13;;;;;;;28.32;21.39;99716.53;5074652;28;20106;-52
2023/07/04 10:31:17;;;;;;;8.85;4.10;;;;;;;28.46;21.80;99727.28;5071368;28;20051;-59
2023/07/04 10:33:59;;;;;;;6.72;4.47;;;;;;;28.53;21.43;99722.47;5072289;28;20121;-53
2023/07/04 10:36:33;;;;;;;7.55;4.25;;;;;;;28.55;21.36;99706.53;5072437;28;20445;-56
2023/07/04 10:39:06;;;;;;;7.30;4.15;;;;;;;28.70;21.73;99717.03;5071664;28;20029;-60
2023/07/04 10:41:47;;;;;;;5.95;4.10;;;;;;;28.96;21.25;99722.16;5072825;28;20104;-55
2023/07/04 10:44:18;;;;;;;9.32;4.20;;;;;;;28.92;20.82;99716.31;5072400;28;20832;-57
2023/07/04 10:46:53;;;;;;;9.43;4.50;;;;;;;28.89;20.91;99722.31;5072986;28;20040;-49
2023/07/04 10:49:22;;;;;;;6.18;4.70;;;;;;;28.85;21.50;99735.78;5074108;28;20102;-55
2023/07/04 10:51:55;;;;;;;7.72;4.55;;;;;;;28.70;21.36;99699.66;5082432;28;20036;-54
2023/07/04 10:54:21;;;;;;;8.18;4.45;;;;;;;28.79;21.62;99718.31;5091760;28;20028;-53
2023/07/04 10:56:51;;;;;;;6.00;4.30;;;;;;;28.79;21.42;99723.81;5074093;28;20108;-56
2023/07/04 10:59:33;;;;;;;7.65;4.43;;;;;;;28.96;21.39;99724.94;5073638;28;20076;-53
2023/07/04 11:02:22;;;;;;;8.70;4.35;;;;;;;29.01;20.99;99717.59;5074404;28;20115;-61
2023/07/04 11:04:50;;;;;;;4.97;3.83;;;;;;;28.94;20.91;99736.22;5073755;28;20188;-58
2023/07/04 11:07:21;;;;;;;6.18;3.95;;;;;;;28.93;20.90;99727.09;5073372;28;20409;-54
2023/07/04 11:09:50;;;;;;;8.23;4.20;;;;;;;28.74;20.72;99733.88;5073282;28;20035;-55
2023/07/04 11:12:19;;;;;;;8.98;4.03;;;;;;;28.58;20.76;99721.72;5073575;28;20029;-54
2023/07/04 11:14:48;;;;;;;7.70;4.30;;;;;;;28.50;20.95;99714.69;5073581;28;20036;-51
2023/07/04 11:17:21;;;;;;;9.40;4.10;;;;;;;28.57;20.57;99718.13;5073111;28;20074;-54
2023/07/04 11:19:56;;;;;;;5.60;4.18;;;;;;;28.52;20.31;99704.28;5073240;28;20126;-56
2023/07/04 11:22:43;;;;;;;8.38;4.45;;;;;;;28.54;20.32;99717.81;5077527;28;20247;-56
2023/07/04 11:25:32;;;;;;;6.57;3.67;;;;;;;28.57;20.73;99711.81;5072811;28;20047;-55
2023/07/04 11:28:14;;;;;;;5.28;3.97;;;;;;;28.53;20.88;99716.97;5081657;28;20048;-53
2023/07/04 11:30:41;;;;;;;6.78;4.07;;;;;;;28.39;21.38;99701.81;5073119;28;20032;-53
2023/07/04 11:33:07;;;;;;;8.38;4.35;;;;;;;28.34;21.41;99702.56;5073389;28;20108;-55
2023/07/04 11:35:36;;;;;;;8.63;4.40;;;;;;;28.33;21.52;99711.88;5073281;28;20043;-57
2023/07/04 11:38:08;;;;;;;7.35;4.30;;;;;;;28.20;21.39;99704.75;5073007;28;20028;-55
2023/07/04 11:40:54;;;;;;;7.22;4.50;;;;;;;28.19;20.93;99706.66;5073103;28;20033;-55
2023/07/04 11:43:29;;;;;;;7.63;4.10;;;;;;;28.19;20.87;99706.66;5080903;28;20058;-61